createdAt,value
2023-05-19T00:00:37.506Z,101452.91
2023-05-19T00:03:05.138Z,101449.75
2023-05-19T00:05:34.505Z,101452.56
2023-05-19T00:08:03.568Z,101450.91
2023-05-19T00:10:39.035Z,101414.16
2023-05-19T00:13:05.731Z,101445.31
2023-05-19T00:15:40.525Z,101446.16
2023-05-19T00:18:09.033Z,101445.31
2023-05-19T00:20:37.784Z,101438.81
2023-05-19T00:23:05.526Z,101441.66
2023-05-19T00:25:32.063Z,101434.59
2023-05-19T00:28:00.815Z,101439.44
2023-05-19T00:30:27.649Z,101436.75
2023-05-19T00:32:57.544Z,101434.22
2023-05-19T00:35:24.578Z,101435.91
2023-05-19T00:38:04.952Z,101431.53
2023-05-19T00:40:35.446Z,101429.88
2023-05-19T00:43:08.643Z,101429.88
2023-05-19T00:45:35.377Z,101426.19
2023-05-19T00:48:14.685Z,101356.94
2023-05-19T00:50:42.991Z,101417.09
2023-05-19T00:53:13.450Z,101422.59
2023-05-19T00:55:48.599Z,101415.94
2023-05-19T00:58:15.535Z,101416.31
2023-05-19T01:00:43.468Z,101413.41
2023-05-19T01:03:13.828Z,101415.84
2023-05-19T01:05:47.681Z,101410.94
2023-05-19T01:08:14.638Z,101413.78
2023-05-19T01:10:41.263Z,101406.47
2023-05-19T01:13:08.634Z,101412.09
2023-05-19T01:15:40.328Z,101412.97
2023-05-19T01:18:15.164Z,101414.63
2023-05-19T01:20:46.369Z,101416.47
2023-05-19T01:23:21.625Z,101411.81
2023-05-19T01:26:07.166Z,101361.59
2023-05-19T01:28:53.631Z,101411.41
2023-05-19T01:31:23.946Z,101414.38
2023-05-19T01:33:52.281Z,101409.34
2023-05-19T01:36:24.064Z,101409.66
2023-05-19T01:38:54.171Z,101362.78
2023-05-19T01:41:21.976Z,101412.63
2023-05-19T01:43:51.873Z,101309.91
2023-05-19T01:46:19.042Z,101411.94
2023-05-19T01:48:45.802Z,101412.78
2023-05-19T01:51:12.394Z,101412.22
2023-05-19T01:53:39.069Z,101411.94
2023-05-19T01:56:09.423Z,101409.66
2023-05-19T01:58:48.231Z,101409.66
2023-05-19T02:01:22.047Z,101418.66
2023-05-19T02:03:51.273Z,101423.19
2023-05-19T02:06:36.816Z,101368.22
2023-05-19T02:09:14.970Z,101416.09
2023-05-19T02:11:52.211Z,101416.69
2023-05-19T02:14:36.027Z,101413.03
2023-05-19T02:17:04.567Z,101408.50
2023-05-19T02:19:35.503Z,101362.09
2023-05-19T02:22:02.144Z,101411.47
2023-05-19T02:24:32.752Z,101411.63
2023-05-19T02:27:00.008Z,101410.63
2023-05-19T02:29:26.872Z,101414.38
2023-05-19T02:31:53.880Z,101407.69
2023-05-19T02:34:21.239Z,101411.31
2023-05-19T02:36:50.133Z,101404.88
2023-05-19T02:39:26.353Z,101406.88
2023-05-19T02:41:54.743Z,101408.56
2023-05-19T02:44:24.993Z,101414.22
2023-05-19T02:46:54.547Z,101412.16
2023-05-19T02:49:21.116Z,101407.63
2023-05-19T02:51:48.382Z,101408.31
2023-05-19T02:54:15.067Z,101414.53
2023-05-19T02:56:41.542Z,101412.94
2023-05-19T02:59:08.138Z,101405.59
2023-05-19T03:01:34.703Z,101364.75
2023-05-19T03:04:01.433Z,101412.22
2023-05-19T03:06:28.458Z,101410.56
2023-05-19T03:08:54.946Z,101405.91
2023-05-19T03:11:23.338Z,101411.41
2023-05-19T03:13:49.871Z,101410.88
2023-05-19T03:16:16.477Z,101418.50
2023-05-19T03:18:43.157Z,101414.03
2023-05-19T03:21:09.667Z,101411.63
2023-05-19T03:23:40.375Z,101365.75
2023-05-19T03:26:06.930Z,101416.00
2023-05-19T03:28:33.474Z,101419.38
2023-05-19T03:31:00.038Z,101414.72
2023-05-19T03:33:29.915Z,101419.81
2023-05-19T03:35:57.193Z,101422.94
2023-05-19T03:38:23.876Z,101420.56
2023-05-19T03:40:53.351Z,101422.09
2023-05-19T03:43:20.612Z,101425.63
2023-05-19T03:45:47.307Z,101423.91
2023-05-19T03:48:16.026Z,101425.75
2023-05-19T03:50:46.968Z,101418.38
2023-05-19T03:53:14.082Z,101425.41
2023-05-19T03:55:44.585Z,101428.69
2023-05-19T03:58:12.307Z,101425.63
2023-05-19T04:00:38.865Z,101427.91
2023-05-19T04:03:05.441Z,101430.41
2023-05-19T04:05:32.040Z,101437.00
2023-05-19T04:07:58.674Z,101440.09
2023-05-19T04:10:35.336Z,101360.91
2023-05-19T04:13:02.516Z,101444.75
2023-05-19T04:15:33.075Z,101446.41
2023-05-19T04:18:03.661Z,101387.16
2023-05-19T04:20:30.323Z,101447.72
2023-05-19T04:22:57.128Z,101447.41
2023-05-19T04:25:25.378Z,101450.22
2023-05-19T04:27:53.049Z,101450.66
2023-05-19T04:30:22.689Z,101454.03
2023-05-19T04:32:52.306Z,101454.03
2023-05-19T04:35:19.663Z,101452.78
2023-05-19T04:37:46.350Z,101454.03
2023-05-19T04:40:13.296Z,101450.97
2023-05-19T04:42:43.222Z,101445.47
2023-05-19T04:45:10.062Z,101450.00
2023-05-19T04:47:39.793Z,101407.47
2023-05-19T04:50:09.699Z,101455.22
2023-05-19T04:52:36.422Z,101449.88
2023-05-19T04:55:09.186Z,101456.94
2023-05-19T04:57:41.292Z,101454.97
2023-05-19T05:00:09.643Z,101462.13
2023-05-19T05:02:36.358Z,101461.28
2023-05-19T05:05:03.253Z,101467.63
2023-05-19T05:07:32.729Z,101462.28
2023-05-19T05:10:08.529Z,101450.47
2023-05-19T05:12:35.973Z,101467.47
2023-05-19T05:15:02.766Z,101462.41
2023-05-19T05:17:29.424Z,101465.94
2023-05-19T05:20:05.083Z,101469.31
2023-05-19T05:22:32.199Z,101467.34
2023-05-19T05:24:58.908Z,101470.72
2023-05-19T05:27:26.190Z,101465.34
2023-05-19T05:29:53.020Z,101473.38
2023-05-19T05:32:19.594Z,101465.06
2023-05-19T05:34:46.192Z,101470.41
2023-05-19T05:37:15.341Z,101478.31
2023-05-19T05:39:42.022Z,101475.44
2023-05-19T05:42:14.089Z,101469.84
2023-05-19T05:44:41.319Z,101477.94
2023-05-19T05:47:12.103Z,101482.75
2023-05-19T05:49:40.294Z,101482.75
2023-05-19T05:52:08.172Z,101486.28
2023-05-19T05:54:34.888Z,101478.50
2023-05-19T05:57:02.739Z,101492.59
2023-05-19T05:59:29.328Z,101487.25
2023-05-19T06:01:58.561Z,101437.16
2023-05-19T06:04:25.896Z,101488.19
2023-05-19T06:06:52.808Z,101489.78
2023-05-19T06:09:21.349Z,101497.38
2023-05-19T06:11:50.209Z,101499.09
2023-05-19T06:14:21.775Z,101500.38
2023-05-19T06:16:48.398Z,101506.00
2023-05-19T06:19:16.942Z,101503.31
2023-05-19T06:21:47.918Z,101505.28
2023-05-19T06:24:15.861Z,101501.19
2023-05-19T06:26:44.864Z,101502.47
2023-05-19T06:29:11.517Z,101504.31
2023-05-19T06:31:40.638Z,101508.53
2023-05-19T06:34:18.270Z,101507.50
2023-05-19T06:36:45.353Z,101503.88
2023-05-19T06:39:18.980Z,101504.16
2023-05-19T06:41:45.772Z,101500.19
2023-05-19T06:44:12.298Z,101506.25
2023-05-19T06:46:42.046Z,101511.91
2023-05-19T06:49:16.047Z,101502.75
2023-05-19T06:51:50.681Z,101451.19
2023-05-19T06:54:17.245Z,101503.88
2023-05-19T06:56:43.869Z,101500.78
2023-05-19T06:59:11.003Z,101506.16
2023-05-19T07:01:37.981Z,101512.63
2023-05-19T07:04:04.835Z,101514.19
2023-05-19T07:06:31.636Z,101519.69
2023-05-19T07:08:58.401Z,101514.72
2023-05-19T07:11:26.472Z,101510.50
2023-05-19T07:14:00.064Z,101517.09
2023-05-19T07:16:32.001Z,101506.38
2023-05-19T07:18:58.842Z,101510.81
2023-05-19T07:21:25.613Z,101507.72
2023-05-19T07:23:52.178Z,101512.91
2023-05-19T07:26:19.077Z,101512.88
2023-05-19T07:28:45.744Z,101511.06
2023-05-19T07:31:14.322Z,101511.34
2023-05-19T07:33:41.006Z,101510.06
2023-05-19T07:36:07.593Z,101507.84
2023-05-19T07:38:35.030Z,101509.81
2023-05-19T07:41:02.136Z,101507.97
2023-05-19T07:43:29.012Z,101508.66
2023-05-19T07:45:56.598Z,101522.31
2023-05-19T07:48:25.789Z,101511.50
2023-05-19T07:50:54.988Z,101516.13
2023-05-19T07:53:22.833Z,101508.53
2023-05-19T07:55:49.474Z,101506.38
2023-05-19T07:58:16.281Z,101519.63
2023-05-19T08:00:46.420Z,101517.97
2023-05-19T08:03:19.444Z,101512.34
2023-05-19T08:05:46.463Z,101507.69
2023-05-19T08:08:16.692Z,101508.13
2023-05-19T08:10:45.398Z,101509.50
2023-05-19T08:13:15.417Z,101511.50
2023-05-19T08:15:46.407Z,101504.72
2023-05-19T08:18:13.250Z,101498.34
2023-05-19T08:20:39.849Z,101508.66
2023-05-19T08:23:06.592Z,101499.22
2023-05-19T08:25:33.287Z,101497.25
2023-05-19T08:28:01.306Z,101504.31
2023-05-19T08:30:28.201Z,101499.78
2023-05-19T08:32:58.185Z,101457.19
2023-05-19T08:35:24.968Z,101507.50
2023-05-19T08:37:52.868Z,101512.88
2023-05-19T08:40:20.544Z,101509.53
2023-05-19T08:42:47.279Z,101511.06
2023-05-19T08:45:17.679Z,101519.53
2023-05-19T08:47:46.400Z,101517.41
2023-05-19T08:50:17.501Z,101521.63
2023-05-19T08:52:49.527Z,101516.56
2023-05-19T08:55:21.866Z,101518.22
2023-05-19T08:57:49.943Z,101521.59
2023-05-19T09:00:17.116Z,101526.44
2023-05-19T09:02:55.087Z,101520.72
2023-05-19T09:05:31.070Z,101519.94
2023-05-19T09:07:57.932Z,101518.22
2023-05-19T09:10:27.160Z,101517.25
2023-05-19T09:12:55.098Z,101518.34
2023-05-19T09:15:26.036Z,101463.50
2023-05-19T09:18:03.478Z,101516.19
2023-05-19T09:20:32.867Z,101463.34
2023-05-19T09:22:59.904Z,101515.38
2023-05-19T09:25:26.875Z,101508.59
2023-05-19T09:27:54.628Z,101510.31
2023-05-19T09:30:21.483Z,101500.56
2023-05-19T09:32:50.797Z,101499.59
2023-05-19T09:35:17.672Z,101500.88
2023-05-19T09:37:44.591Z,101496.22
2023-05-19T09:40:15.848Z,101499.19
2023-05-19T09:42:45.510Z,101499.81
2023-05-19T09:45:16.168Z,101443.06
2023-05-19T09:47:43.818Z,101499.69
2023-05-19T09:50:12.165Z,101501.88
2023-05-19T09:52:39.434Z,101503.38
2023-05-19T09:55:09.507Z,101496.44
2023-05-19T09:57:37.476Z,101499.00
2023-05-19T10:00:19.888Z,101493.69
2023-05-19T10:02:57.858Z,101448.47
2023-05-19T10:05:30.085Z,101496.13
2023-05-19T10:08:19.483Z,101497.91
2023-05-19T10:10:47.720Z,101493.41
2023-05-19T10:13:44.891Z,101485.06
2023-05-19T10:16:15.706Z,101488.09
2023-05-19T10:18:42.630Z,101484.00
2023-05-19T10:21:09.897Z,101485.09
2023-05-19T10:23:36.811Z,101485.41
2023-05-19T10:26:07.244Z,101429.50
2023-05-19T10:28:39.086Z,101483.13
2023-05-19T10:31:08.059Z,101486.28
2023-05-19T10:33:41.145Z,101481.91
2023-05-19T10:36:35.668Z,101479.16
2023-05-19T10:39:06.767Z,101483.13
2023-05-19T10:41:36.418Z,101474.38
2023-05-19T10:44:12.524Z,101403.06
2023-05-19T10:46:40.206Z,101482.53
2023-05-19T10:49:18.174Z,101484.78
2023-05-19T10:51:45.577Z,101480.38
2023-05-19T10:54:16.188Z,101492.94
2023-05-19T10:56:48.915Z,101484.19
2023-05-19T10:59:32.392Z,101486.13
2023-05-19T11:02:03.876Z,101484.75
2023-05-19T11:04:51.837Z,101484.44
2023-05-19T11:07:20.218Z,101479.38
2023-05-19T11:09:51.624Z,101477.69
2023-05-19T11:12:24.759Z,101484.28
2023-05-19T11:14:55.983Z,101489.25
2023-05-19T11:17:24.882Z,101476.25
2023-05-19T11:19:52.871Z,101477.63
2023-05-19T11:22:22.709Z,101477.19
2023-05-19T11:24:50.677Z,101477.88
2023-05-19T11:27:21.602Z,101472.59
2023-05-19T11:29:49.866Z,101477.25
2023-05-19T11:32:18.458Z,101472.88
2023-05-19T11:34:47.067Z,101475.84
2023-05-19T11:37:13.768Z,101476.56
2023-05-19T11:39:42.577Z,101471.66
2023-05-19T11:42:13.552Z,101472.88
2023-05-19T11:44:44.810Z,101466.38
2023-05-19T11:47:14.036Z,101415.41
2023-05-19T11:49:48.295Z,101461.56
2023-05-19T11:52:15.887Z,101463.63
2023-05-19T11:54:42.525Z,101458.03
2023-05-19T11:57:20.229Z,101453.50
2023-05-19T11:59:51.873Z,101453.06
2023-05-19T12:02:27.070Z,101465.06
2023-05-19T12:04:54.365Z,101459.25
2023-05-19T12:07:27.758Z,101457.59
2023-05-19T12:09:55.574Z,101459.63
2023-05-19T12:12:22.832Z,101454.66
2023-05-19T12:14:51.408Z,101463.91
2023-05-19T12:17:19.855Z,101452.19
2023-05-19T12:19:50.240Z,101461.88
2023-05-19T12:22:18.161Z,101389.63
2023-05-19T12:24:45.408Z,101448.59
2023-05-19T12:27:15.462Z,101456.69
2023-05-19T12:29:42.145Z,101458.03
2023-05-19T12:32:09.869Z,101450.19
2023-05-19T12:34:37.442Z,101457.44
2023-05-19T12:37:04.588Z,101451.06
2023-05-19T12:39:56.774Z,101456.03
2023-05-19T12:42:24.373Z,101457.69
2023-05-19T12:44:52.880Z,101460.31
2023-05-19T12:47:20.265Z,101462.38
2023-05-19T12:49:59.557Z,101462.53
2023-05-19T12:52:27.922Z,101463.16
2023-05-19T12:55:01.799Z,101451.00
2023-05-19T12:57:32.090Z,101459.41
2023-05-19T13:00:07.197Z,101456.34
2023-05-19T13:02:37.526Z,101448.75
2023-05-19T13:05:05.035Z,101447.88
2023-05-19T13:07:35.379Z,101446.28
2023-05-19T13:10:04.297Z,101447.44
2023-05-19T13:12:30.785Z,101437.06
2023-05-19T13:15:01.381Z,101441.09
2023-05-19T13:17:32.739Z,101441.94
2023-05-19T13:20:02.476Z,101429.69
2023-05-19T13:22:28.960Z,101435.56
2023-05-19T13:24:58.849Z,101438.94
2023-05-19T13:27:28.748Z,101433.81
2023-05-19T13:29:55.299Z,101438.94
2023-05-19T13:32:25.984Z,101438.16
2023-05-19T13:34:52.673Z,101436.84
2023-05-19T13:37:21.160Z,101425.59
2023-05-19T13:39:48.956Z,101369.75
2023-05-19T13:42:17.437Z,101417.75
2023-05-19T13:44:51.017Z,101423.31
2023-05-19T13:47:17.624Z,101422.47
2023-05-19T13:49:47.227Z,101412.31
2023-05-19T13:52:15.020Z,101415.88
2023-05-19T13:54:41.947Z,101412.34
2023-05-19T13:57:11.720Z,101411.88
2023-05-19T13:59:45.894Z,101424.28
2023-05-19T14:02:25.903Z,101388.47
2023-05-19T14:04:52.542Z,101423.53
2023-05-19T14:07:19.685Z,101417.09
2023-05-19T14:09:46.545Z,101410.97
2023-05-19T14:12:14.081Z,101410.00
2023-05-19T14:14:40.802Z,101409.31
2023-05-19T14:17:07.416Z,101413.72
2023-05-19T14:19:34.851Z,101405.00
2023-05-19T14:22:01.433Z,101399.22
2023-05-19T14:24:27.980Z,101393.69
2023-05-19T14:26:56.964Z,101395.28
2023-05-19T14:29:23.915Z,101389.94
2023-05-19T14:31:50.744Z,101394.34
2023-05-19T14:34:22.257Z,101381.75
2023-05-19T14:36:50.517Z,101381.88
2023-05-19T14:39:20.706Z,101331.75
2023-05-19T14:41:49.590Z,101383.53
2023-05-19T14:44:16.231Z,101386.75
2023-05-19T14:46:43.085Z,101388.56
2023-05-19T14:49:10.490Z,101384.91
2023-05-19T14:51:39.334Z,101391.81
2023-05-19T14:54:06.078Z,101387.72
2023-05-19T14:56:48.889Z,101384.69
2023-05-19T14:59:15.734Z,101380.16
2023-05-19T15:01:42.869Z,101371.13
2023-05-19T15:04:12.135Z,101383.03
2023-05-19T15:06:38.852Z,101376.38
2023-05-19T15:09:05.649Z,101371.81
2023-05-19T15:11:33.249Z,101376.50
2023-05-19T15:14:00.103Z,101365.44
2023-05-19T15:16:26.746Z,101366.94
2023-05-19T15:18:53.540Z,101366.41
2023-05-19T15:21:21.228Z,101355.19
2023-05-19T15:23:47.886Z,101351.94
2023-05-19T15:26:16.958Z,101355.94
2023-05-19T15:28:43.487Z,101362.31
2023-05-19T15:31:10.164Z,101357.97
2023-05-19T15:33:38.388Z,101319.38
2023-05-19T15:36:05.263Z,101351.97
2023-05-19T15:38:35.184Z,101345.28
2023-05-19T15:41:05.972Z,101334.41
2023-05-19T15:43:32.753Z,101339.94
2023-05-19T15:45:59.421Z,101337.44
2023-05-19T15:48:29.081Z,101337.94
2023-05-19T15:50:58.258Z,101327.59
2023-05-19T15:53:25.965Z,101320.16
2023-05-19T15:55:52.768Z,101324.06
2023-05-19T15:58:28.344Z,101340.13
2023-05-19T16:00:55.080Z,101334.94
2023-05-19T16:03:27.087Z,101335.28
2023-05-19T16:05:55.720Z,101339.63
2023-05-19T16:08:22.636Z,101339.63
2023-05-19T16:10:49.252Z,101351.53
2023-05-19T16:13:15.865Z,101340.06
2023-05-19T16:15:42.496Z,101345.94
2023-05-19T16:18:09.437Z,101325.44
2023-05-19T16:20:36.192Z,101351.97
2023-05-19T16:23:03.732Z,101348.63
2023-05-19T16:25:31.210Z,101292.81
2023-05-19T16:28:04.676Z,101348.91
2023-05-19T16:30:31.459Z,101345.38
2023-05-19T16:32:58.353Z,101337.84
2023-05-19T16:35:28.394Z,101346.84
2023-05-19T16:37:58.356Z,101337.59
2023-05-19T16:40:25.348Z,101344.13
2023-05-19T16:42:55.189Z,101337.59
2023-05-19T16:45:21.934Z,101332.38
2023-05-19T16:47:48.468Z,101335.06
2023-05-19T16:50:16.429Z,101329.19
2023-05-19T16:52:43.477Z,101332.34
2023-05-19T16:55:11.037Z,101327.91
2023-05-19T16:57:37.677Z,101325.63
2023-05-19T17:02:55.595Z,101326.25
2023-05-19T17:05:22.151Z,101334.97
2023-05-19T17:07:49.551Z,101338.03
2023-05-19T17:10:16.271Z,101336.97
2023-05-19T17:12:43.162Z,101332.44
2023-05-19T17:15:10.004Z,101329.63
2023-05-19T17:17:36.921Z,101324.94
2023-05-19T17:20:06.194Z,101327.06
2023-05-19T17:22:33.298Z,101330.22
2023-05-19T17:25:00.177Z,101331.06
2023-05-19T17:27:26.825Z,101331.94
2023-05-19T17:29:53.394Z,101337.75
2023-05-19T17:32:25.708Z,101340.44
2023-05-19T17:34:52.558Z,101343.81
2023-05-19T17:37:19.634Z,101343.50
2023-05-19T17:39:48.600Z,101339.59
2023-05-19T17:42:15.806Z,101339.28
2023-05-19T17:44:42.399Z,101337.81
2023-05-19T17:47:10.788Z,101312.59
2023-05-19T17:49:37.714Z,101331.44
2023-05-19T17:52:04.689Z,101336.97
2023-05-19T17:54:34.528Z,101294.72
2023-05-19T17:57:03.776Z,101334.44
2023-05-19T17:59:30.904Z,101335.91
2023-05-19T18:02:01.182Z,101290.53
2023-05-19T18:04:28.229Z,101331.03
2023-05-19T18:06:56.049Z,101337.41
2023-05-19T18:09:23.365Z,101329.38
2023-05-19T18:11:50.021Z,101338.25
2023-05-19T18:14:16.698Z,101331.88
2023-05-19T18:16:47.526Z,101338.56
2023-05-19T18:19:14.696Z,101333.50
2023-05-19T18:21:44.702Z,101270.25
2023-05-19T18:24:11.639Z,101334.19
2023-05-19T18:26:42.218Z,101337.19
2023-05-19T18:29:09.973Z,101345.06
2023-05-19T18:31:36.934Z,101340.38
2023-05-19T18:34:04.949Z,101291.28
2023-05-19T18:36:31.767Z,101338.84
2023-05-19T18:39:04.735Z,101343.25
2023-05-19T18:41:32.139Z,101343.25
2023-05-19T18:44:01.731Z,101347.59
2023-05-19T18:46:28.404Z,101348.13
2023-05-19T18:48:55.226Z,101343.91
2023-05-19T18:51:22.579Z,101338.56
2023-05-19T18:53:50.306Z,101346.22
2023-05-19T18:56:23.650Z,101341.16
2023-05-19T18:58:58.538Z,101250.06
2023-05-19T19:01:38.042Z,101347.59
2023-05-19T19:04:16.876Z,101350.59
2023-05-19T19:06:48.890Z,101295.59
2023-05-19T19:09:19.952Z,101352.56
2023-05-19T19:11:48.786Z,101358.94
2023-05-19T19:14:15.521Z,101348.00
2023-05-19T19:16:45.359Z,101356.19
2023-05-19T19:19:15.778Z,101308.56
2023-05-19T19:21:44.854Z,101356.50
2023-05-19T19:24:11.496Z,101364.56
2023-05-19T19:26:45.115Z,101350.84
2023-05-19T19:29:13.930Z,101369.59
2023-05-19T19:31:48.350Z,101364.41
2023-05-19T19:34:15.083Z,101367.91
2023-05-19T19:36:46.218Z,101372.28
2023-05-19T19:39:13.708Z,101326.16
2023-05-19T19:41:46.624Z,101376.94
2023-05-19T19:44:14.117Z,101378.97
2023-05-19T19:46:40.900Z,101381.63
2023-05-19T19:49:10.320Z,101382.63
2023-05-19T19:51:37.189Z,101384.47
2023-05-19T19:54:12.187Z,101381.78
2023-05-19T19:56:38.881Z,101387.59
2023-05-19T19:59:05.759Z,101386.91
2023-05-19T20:01:33.851Z,101389.59
2023-05-19T20:04:01.246Z,101380.56
2023-05-19T20:06:28.492Z,101379.19
2023-05-19T20:08:55.399Z,101375.81
2023-05-19T20:11:25.427Z,101326.03
2023-05-19T20:13:52.362Z,101380.16
2023-05-19T20:16:19.246Z,101375.81
2023-05-19T20:18:48.238Z,101382.19
2023-05-19T20:21:15.678Z,101378.97
2023-05-19T20:23:42.522Z,101386.84
2023-05-19T20:26:13.099Z,101385.00
2023-05-19T20:28:44.822Z,101345.78
2023-05-19T20:31:11.430Z,101392.22
2023-05-19T20:33:38.159Z,101386.03
2023-05-19T20:36:16.029Z,101351.81
2023-05-19T20:38:42.682Z,101389.16
2023-05-19T20:41:17.188Z,101380.25
2023-05-19T20:43:44.478Z,101376.91
2023-05-19T20:46:13.954Z,101374.53
2023-05-19T20:48:40.641Z,101377.38
2023-05-19T20:51:07.280Z,101388.38
2023-05-19T20:53:34.690Z,101378.34
2023-05-19T20:56:01.257Z,101379.03
2023-05-19T20:58:30.354Z,101382.72
2023-05-19T21:01:00.692Z,101328.72
2023-05-19T21:03:28.708Z,101390.91
2023-05-19T21:05:55.735Z,101386.56
2023-05-19T21:08:22.753Z,101383.88
2023-05-19T21:10:57.177Z,101377.66
2023-05-19T21:13:24.784Z,101383.00
2023-05-19T21:15:51.390Z,101387.53
2023-05-19T21:18:18.050Z,101378.66
2023-05-19T21:20:46.098Z,101376.00
2023-05-19T21:23:18.829Z,101384.84
2023-05-19T21:25:46.159Z,101384.03
2023-05-19T21:28:12.820Z,101383.31
2023-05-19T21:30:42.789Z,101341.25
2023-05-19T21:33:09.562Z,101381.66
2023-05-19T21:35:39.449Z,101383.63
2023-05-19T21:38:22.176Z,101381.94
2023-05-19T21:40:50.622Z,101380.41
2023-05-19T21:43:17.304Z,101377.91
2023-05-19T21:45:43.821Z,101374.91
2023-05-19T21:48:11.611Z,101381.28
2023-05-19T21:50:38.652Z,101383.25
2023-05-19T21:53:05.879Z,101385.75
2023-05-19T21:55:37.842Z,101389.00
2023-05-19T21:58:04.511Z,101387.00
2023-05-19T22:00:36.830Z,101383.63
2023-05-19T22:03:03.847Z,101383.97
2023-05-19T22:05:33.209Z,101378.59
2023-05-19T22:08:02.417Z,101375.69
2023-05-19T22:10:29.187Z,101379.19
2023-05-19T22:12:57.582Z,101381.03
2023-05-19T22:15:24.215Z,101376.50
2023-05-19T22:17:51.334Z,101374.53
2023-05-19T22:20:19.305Z,101372.56
2023-05-19T22:22:46.222Z,101364.53
2023-05-19T22:25:17.608Z,101323.16
2023-05-19T22:27:50.009Z,101371.78
2023-05-19T22:30:22.636Z,101367.09
2023-05-19T22:32:52.134Z,101364.28
2023-05-19T22:35:21.053Z,101367.09
2023-05-19T22:37:50.978Z,101366.94
2023-05-19T22:40:17.977Z,101369.13
2023-05-19T22:42:44.606Z,101366.72
2023-05-19T22:45:11.726Z,101365.44
2023-05-19T22:47:38.417Z,101366.44
2023-05-19T22:50:05.294Z,101355.56
2023-05-19T22:52:36.632Z,101361.91
2023-05-19T22:55:04.040Z,101360.38
2023-05-19T22:57:34.329Z,101360.06
2023-05-19T23:00:04.559Z,101351.03
2023-05-19T23:02:31.165Z,101356.00
2023-05-19T23:05:08.280Z,101358.41
2023-05-19T23:07:44.299Z,101357.00
2023-05-19T23:10:11.107Z,101359.06
2023-05-19T23:12:41.598Z,101348.97
2023-05-19T23:15:12.557Z,101355.63
2023-05-19T23:17:39.334Z,101346.44
2023-05-19T23:20:06.223Z,101349.13
2023-05-19T23:22:32.867Z,101344.78
2023-05-19T23:25:02.045Z,101341.78
2023-05-19T23:27:33.895Z,101333.91
2023-05-19T23:30:00.516Z,101337.25
2023-05-19T23:32:27.699Z,101332.22
2023-05-19T23:34:54.346Z,101325.72
2023-05-19T23:37:20.860Z,101329.78
2023-05-19T23:39:47.433Z,101326.03
2023-05-19T23:42:14.214Z,101324.81
2023-05-19T23:44:41.212Z,101321.00
2023-05-19T23:47:08.047Z,101316.78
2023-05-19T23:49:34.694Z,101306.09
2023-05-19T23:52:01.524Z,101303.41
2023-05-19T23:54:30.360Z,101316.22
2023-05-19T23:56:56.953Z,101312.69
2023-05-19T23:59:24.649Z,101313.25
